Time;durP1;ratioP1;P1;durP2;ratioP2;P2;SDS_P1;SDS_P2;PMS_P1;PMS_P2;Temp;Humidity;BMP_temperature;BMP_pressure;BME280_temperature;BME280_humidity;BME280_pressure;Samples;Min_cycle;Max_cycle;Signal;HPM_P1;HPM_P2
2021/05/22 00:00:17;;;;;;;4.88;2.10;;;;;;;13.18;49.10;99908.69;685955;28;23535;-64
2021/05/22 00:00:46;;;;;;;3.42;2.00;;;;;;;13.15;49.23;99912.66;684047;28;58969;-64
2021/05/22 00:01:07;;;;;;;3.28;2.17;;;;;;;13.14;49.54;99908.28;685061;28;39251;-64
2021/05/22 00:01:28;;;;;;;4.72;2.08;;;;;;;13.15;49.53;99911.84;688804;28;5841;-64
2021/05/22 00:01:49;;;;;;;4.13;2.20;;;;;;;13.11;49.47;99907.88;690053;28;13015;-64
2021/05/22 00:02:11;;;;;;;5.15;2.22;;;;;;;13.10;49.24;99906.22;690864;28;22411;-64
2021/05/22 00:02:32;;;;;;;4.15;2.03;;;;;;;13.08;49.56;99909.13;690325;28;45217;-64
2021/05/22 00:02:53;;;;;;;5.13;2.20;;;;;;;13.07;49.26;99907.50;691538;28;7750;-64
2021/05/22 00:03:14;;;;;;;5.25;2.10;;;;;;;13.07;49.77;99907.50;690487;28;5417;-64
2021/05/22 00:03:35;;;;;;;3.38;1.98;;;;;;;13.05;49.63;99904.16;685938;28;23400;-64
2021/05/22 00:03:57;;;;;;;3.78;2.00;;;;;;;13.03;49.41;99898.13;686036;28;22365;-64
2021/05/22 00:04:18;;;;;;;4.88;1.88;;;;;;;13.03;49.39;99900.00;686104;28;6666;-64
2021/05/22 00:04:39;;;;;;;3.85;2.03;;;;;;;13.02;49.53;99901.84;686409;28;7577;-64
2021/05/22 00:05:00;;;;;;;3.90;2.00;;;;;;;13.00;49.49;99900.44;685997;28;22376;-64
2021/05/22 00:05:21;;;;;;;3.60;1.97;;;;;;;13.00;49.86;99900.44;684837;28;46403;-64
2021/05/22 00:05:42;;;;;;;2.67;2.10;;;;;;;12.98;49.82;99898.75;684632;28;46386;-64
2021/05/22 00:06:04;;;;;;;3.55;2.10;;;;;;;12.98;49.82;99898.75;690432;28;38672;-64
2021/05/22 00:06:25;;;;;;;3.45;2.00;;;;;;;12.98;49.67;99893.34;690843;28;22547;-64
2021/05/22 00:06:46;;;;;;;3.60;1.90;;;;;;;12.97;49.90;99898.97;690758;28;20254;-64
2021/05/22 00:07:07;;;;;;;2.55;1.90;;;;;;;12.98;49.63;99896.03;690983;28;15629;-64
2021/05/22 00:07:28;;;;;;;3.45;2.10;;;;;;;12.97;49.86;99901.69;690389;28;45198;-64
2021/05/22 00:07:50;;;;;;;5.28;2.05;;;;;;;12.97;49.92;99894.38;690397;28;22395;-64
2021/05/22 00:08:11;;;;;;;4.35;1.95;;;;;;;12.97;50.12;99899.78;685895;28;15351;-64
2021/05/22 00:08:32;;;;;;;3.03;2.10;;;;;;;12.97;49.79;99899.78;691101;28;14366;-64
2021/05/22 00:08:53;;;;;;;4.82;2.00;;;;;;;12.97;49.96;99897.06;691019;28;21615;-64
2021/05/22 00:09:14;;;;;;;5.20;2.00;;;;;;;12.96;49.74;99903.56;690519;28;42521;-64
2021/05/22 00:09:35;;;;;;;4.60;2.20;;;;;;;12.97;49.86;99902.50;689615;28;46337;-64
2021/05/22 00:09:57;;;;;;;5.15;2.05;;;;;;;12.98;50.07;99908.78;690032;28;47187;-64
2021/05/22 00:10:18;;;;;;;3.13;2.00;;;;;;;12.96;49.82;99900.84;690554;28;22489;-64
2021/05/22 00:10:40;;;;;;;3.08;2.33;;;;;;;12.97;49.86;99901.69;686426;28;906;-64
2021/05/22 00:11:02;;;;;;;2.63;2.28;;;;;;;12.95;49.99;99901.88;691791;28;941;-64
2021/05/22 00:11:25;;;;;;;2.80;2.28;;;;;;;12.98;49.93;99897.94;689959;28;45334;-64
2021/05/22 00:11:47;;;;;;;3.10;2.05;;;;;;;12.97;49.77;99891.66;690466;28;13487;-64
2021/05/22 00:12:12;;;;;;;5.15;2.00;;;;;;;12.96;49.72;99895.44;691544;28;11848;-64
2021/05/22 00:12:33;;;;;;;3.22;2.13;;;;;;;12.97;49.93;99896.25;688843;28;90244;-64
2021/05/22 00:12:54;;;;;;;2.70;1.90;;;;;;;12.97;49.54;99891.66;688594;28;22388;-64
2021/05/22 00:13:15;;;;;;;5.28;2.00;;;;;;;12.97;49.72;99890.84;685158;28;22489;-64
2021/05/22 00:13:37;;;;;;;5.07;2.13;;;;;;;12.96;49.71;99892.72;685149;28;46392;-64
2021/05/22 00:13:58;;;;;;;3.45;2.05;;;;;;;12.96;49.84;99891.88;684190;28;69524;-64
2021/05/22 00:14:20;;;;;;;2.30;1.80;;;;;;;12.95;49.72;99891.03;685355;28;44388;-64
2021/05/22 00:14:41;;;;;;;3.13;1.95;;;;;;;12.95;49.70;99890.22;684968;28;46444;-64
2021/05/22 00:15:03;;;;;;;3.40;2.30;;;;;;;12.95;49.92;99890.22;686328;28;3594;-64
2021/05/22 00:15:25;;;;;;;3.80;2.22;;;;;;;12.95;49.76;99890.22;685304;28;47444;-64
2021/05/22 00:15:46;;;;;;;2.75;2.30;;;;;;;12.95;49.89;99890.22;684367;28;45601;-64
2021/05/22 00:16:07;;;;;;;3.90;2.40;;;;;;;12.93;49.78;99887.72;685925;28;22449;-64
2021/05/22 00:16:28;;;;;;;2.60;1.92;;;;;;;12.93;49.82;99884.16;686109;28;20554;-64
2021/05/22 00:16:51;;;;;;;4.43;2.00;;;;;;;12.92;50.14;99879.81;686546;28;914;-64
2021/05/22 00:17:12;;;;;;;5.95;2.20;;;;;;;12.92;49.96;99890.66;684638;28;44378;-64
2021/05/22 00:17:33;;;;;;;4.65;1.95;;;;;;;12.91;50.16;99887.09;686152;28;1029;-64
2021/05/22 00:17:55;;;;;;;3.17;2.13;;;;;;;12.90;50.06;99887.31;684576;28;45277;-64
2021/05/22 00:18:16;;;;;;;3.60;2.08;;;;;;;12.89;49.78;99878.34;684622;28;46377;-64
2021/05/22 00:18:37;;;;;;;3.42;2.00;;;;;;;12.90;49.71;99888.16;685019;28;21705;-64
2021/05/22 00:18:58;;;;;;;5.60;2.30;;;;;;;12.89;50.33;99885.66;686157;28;22423;-64
2021/05/22 00:19:19;;;;;;;4.15;2.20;;;;;;;12.89;50.23;99880.25;685422;28;23454;-64
2021/05/22 00:19:40;;;;;;;5.47;2.42;;;;;;;12.88;50.06;99879.38;685655;28;22360;-64
2021/05/22 00:20:04;;;;;;;4.15;2.30;;;;;;;12.88;50.05;99879.38;685685;28;22237;-64
2021/05/22 00:20:25;;;;;;;5.47;1.90;;;;;;;12.89;49.89;99881.06;683155;28;92285;-64
2021/05/22 00:20:46;;;;;;;4.40;2.10;;;;;;;12.88;50.10;99875.84;684732;28;45260;-64
2021/05/22 00:21:07;;;;;;;4.70;2.20;;;;;;;12.88;50.21;99878.56;685662;28;22420;-64
2021/05/22 00:21:28;;;;;;;3.88;2.13;;;;;;;12.88;50.45;99876.69;685862;28;21967;-64
2021/05/22 00:21:50;;;;;;;3.97;2.30;;;;;;;12.89;50.10;99877.53;685440;28;23495;-64
2021/05/22 00:22:11;;;;;;;3.00;2.10;;;;;;;12.90;50.24;99876.47;686101;28;22453;-64
2021/05/22 00:22:32;;;;;;;3.78;1.98;;;;;;;12.89;50.00;99882.94;685218;28;46518;-64
2021/05/22 00:22:53;;;;;;;6.22;2.30;;;;;;;12.88;49.96;99883.97;685637;28;22493;-64
2021/05/22 00:23:15;;;;;;;2.42;2.13;;;;;;;12.86;50.05;99877.94;685491;28;13665;-64
2021/05/22 00:23:36;;;;;;;3.05;2.10;;;;;;;12.86;49.89;99872.53;684489;28;42805;-64
2021/05/22 00:23:58;;;;;;;4.07;2.17;;;;;;;12.86;50.22;99867.13;683609;28;1499;-64
2021/05/22 00:24:19;;;;;;;3.83;2.05;;;;;;;12.84;49.91;99870.03;683078;28;22394;-64
2021/05/22 00:24:41;;;;;;;2.15;1.70;;;;;;;12.84;50.06;99875.47;684300;28;980;-64
2021/05/22 00:25:03;;;;;;;2.95;1.95;;;;;;;12.84;50.16;99870.03;685331;28;22418;-64
2021/05/22 00:25:24;;;;;;;5.00;2.25;;;;;;;12.84;49.86;99864.63;684896;28;46523;-64
2021/05/22 00:25:45;;;;;;;6.35;2.25;;;;;;;12.82;50.25;99860.44;685576;28;22389;-64
2021/05/22 00:26:06;;;;;;;5.90;2.13;;;;;;;12.81;50.11;99865.03;686620;28;921;-64
2021/05/22 00:26:28;;;;;;;4.70;2.30;;;;;;;12.82;50.26;99861.28;686142;28;10800;-64
2021/05/22 00:26:49;;;;;;;2.95;2.30;;;;;;;12.82;50.18;99855.88;685368;28;23518;-64
2021/05/22 00:27:12;;;;;;;4.05;2.38;;;;;;;12.82;50.49;99857.72;683399;28;69516;-64
2021/05/22 00:27:33;;;;;;;3.85;2.13;;;;;;;12.81;50.53;99854.19;685673;28;22369;-64
2021/05/22 00:27:54;;;;;;;5.05;2.03;;;;;;;12.82;50.48;99858.59;685696;28;22122;-64
2021/05/22 00:28:15;;;;;;;5.43;2.10;;;;;;;12.82;49.97;99855.88;684485;28;46823;-64
2021/05/22 00:28:37;;;;;;;4.18;2.13;;;;;;;12.82;50.32;99853.16;684911;28;22410;-64
2021/05/22 00:28:58;;;;;;;2.85;2.00;;;;;;;12.80;50.08;99856.09;685097;28;40517;-64
2021/05/22 00:29:20;;;;;;;5.38;2.10;;;;;;;12.82;50.10;99855.03;685709;28;23488;-64
2021/05/22 00:29:41;;;;;;;3.90;1.90;;;;;;;12.81;50.48;99862.31;684783;28;46303;-64
2021/05/22 00:30:03;;;;;;;4.55;1.92;;;;;;;12.81;50.19;99854.19;685928;28;10054;-64
2021/05/22 00:30:25;;;;;;;5.13;2.30;;;;;;;12.81;50.37;99856.91;685451;28;25124;-64
2021/05/22 00:30:46;;;;;;;4.50;2.35;;;;;;;12.79;50.53;99854.41;685584;28;20308;-64
2021/05/22 00:31:07;;;;;;;4.90;2.38;;;;;;;12.79;50.43;99859.00;684772;28;46648;-64
2021/05/22 00:31:28;;;;;;;5.35;2.28;;;;;;;12.78;50.42;99854.63;686192;28;15318;-64
2021/05/22 00:31:49;;;;;;;5.15;2.10;;;;;;;12.78;50.51;99851.91;685261;28;22492;-64
2021/05/22 00:32:10;;;;;;;6.55;2.40;;;;;;;12.78;50.90;99857.34;685590;28;17376;-64
2021/05/22 00:32:32;;;;;;;6.47;2.13;;;;;;;12.78;50.94;99847.31;685536;28;23489;-64
2021/05/22 00:32:53;;;;;;;4.38;1.90;;;;;;;12.76;50.86;99846.72;688272;28;15155;-64
2021/05/22 00:33:14;;;;;;;4.78;2.05;;;;;;;12.77;50.37;99842.97;688407;28;10192;-64
2021/05/22 00:33:35;;;;;;;3.22;2.33;;;;;;;12.75;50.78;99842.31;688595;28;15159;-64
2021/05/22 00:33:56;;;;;;;2.58;2.30;;;;;;;12.76;50.57;99845.88;688400;28;15243;-64
2021/05/22 00:34:17;;;;;;;5.60;2.25;;;;;;;12.77;50.38;99842.97;687715;28;44985;-64
2021/05/22 00:34:38;;;;;;;4.40;2.38;;;;;;;12.77;50.28;99831.28;688007;28;22400;-64
2021/05/22 00:35:00;;;;;;;3.67;2.20;;;;;;;12.77;50.58;99840.25;690504;28;13806;-65
2021/05/22 00:35:21;;;;;;;3.00;2.20;;;;;;;12.76;50.65;99833.16;690846;28;21317;-64
2021/05/22 00:35:43;;;;;;;4.43;2.50;;;;;;;12.76;50.74;99837.75;690882;28;20976;-64
2021/05/22 00:36:05;;;;;;;5.00;2.30;;;;;;;12.74;50.76;99835.25;689858;28;44404;-64
2021/05/22 00:36:26;;;;;;;5.00;2.00;;;;;;;12.73;50.82;99830.06;689637;28;45220;-64
2021/05/22 00:36:47;;;;;;;4.13;1.90;;;;;;;12.70;50.87;99836.72;690294;28;22395;-64
2021/05/22 00:37:08;;;;;;;4.80;1.98;;;;;;;12.71;50.94;99837.53;687917;28;22552;-64
2021/05/22 00:37:29;;;;;;;3.70;2.05;;;;;;;12.71;50.84;99837.53;688596;28;20351;-64
2021/05/22 00:37:56;;;;;;;3.15;2.00;;;;;;;12.69;50.63;99839.66;685304;28;84665;-64
2021/05/22 00:38:18;;;;;;;3.40;2.13;;;;;;;12.70;50.87;99835.91;687630;28;6422;-64
2021/05/22 00:38:39;;;;;;;3.40;2.00;;;;;;;12.70;50.88;99841.31;686156;28;31306;-64
2021/05/22 00:39:00;;;;;;;2.90;2.15;;;;;;;12.68;50.87;99838.81;685776;28;23437;-64
2021/05/22 00:39:21;;;;;;;3.50;2.05;;;;;;;12.68;50.60;99844.25;685293;28;22486;-64
2021/05/22 00:39:43;;;;;;;3.47;2.03;;;;;;;12.68;50.74;99843.38;685715;28;12192;-64
2021/05/22 00:40:06;;;;;;;3.00;2.25;;;;;;;12.65;50.64;99847.38;684815;28;44395;-64
2021/05/22 00:40:27;;;;;;;2.92;1.92;;;;;;;12.65;50.67;99843.81;684470;28;61217;-64
2021/05/22 00:40:48;;;;;;;4.53;2.10;;;;;;;12.66;50.80;99840.06;686181;28;12791;-64
2021/05/22 00:41:09;;;;;;;4.95;2.22;;;;;;;12.64;50.64;99837.56;685581;28;22027;-64
2021/05/22 00:41:30;;;;;;;4.43;2.22;;;;;;;12.65;50.96;99835.69;685515;28;21512;-64
2021/05/22 00:41:51;;;;;;;4.13;2.20;;;;;;;12.67;51.04;99839.03;685525;28;23481;-64
2021/05/22 00:42:12;;;;;;;5.13;2.20;;;;;;;12.66;50.63;99835.47;686460;28;6258;-64
2021/05/22 00:42:36;;;;;;;3.28;2.22;;;;;;;12.67;50.31;99833.63;685681;28;21509;-64
2021/05/22 00:42:57;;;;;;;4.57;2.08;;;;;;;12.67;50.64;99836.31;683192;28;93547;-64
2021/05/22 00:43:19;;;;;;;3.60;2.28;;;;;;;12.67;50.45;99830.91;685834;28;23392;-64
2021/05/22 00:43:40;;;;;;;4.43;2.28;;;;;;;12.67;50.59;99833.63;685886;28;23466;-64
2021/05/22 00:44:02;;;;;;;6.35;2.20;;;;;;;12.65;51.02;99839.25;685500;28;46194;-64
2021/05/22 00:44:27;;;;;;;3.40;1.90;;;;;;;12.65;50.57;99839.25;684887;28;45241;-64
2021/05/22 00:45:09;;;;;;;3.85;2.05;;;;;;;12.68;50.60;99840.69;682426;28;116089;-64
2021/05/22 00:45:31;;;;;;;4.72;2.28;;;;;;;12.69;50.90;99847.78;683581;28;160681;-64
2021/05/22 00:45:54;;;;;;;4.57;2.10;;;;;;;12.68;50.51;99838.81;685403;28;69281;-64
2021/05/22 00:46:16;;;;;;;2.10;1.90;;;;;;;12.68;50.44;99833.41;686821;28;51427;-64
2021/05/22 00:46:37;;;;;;;4.32;2.08;;;;;;;12.69;50.45;99835.06;687067;28;45285;-64
2021/05/22 00:46:58;;;;;;;3.60;2.10;;;;;;;12.69;50.74;99842.34;687655;28;18394;-64
2021/05/22 00:47:19;;;;;;;4.60;2.30;;;;;;;12.68;50.59;99838.81;686974;28;23524;-64
2021/05/22 00:47:43;;;;;;;3.60;2.30;;;;;;;12.68;50.81;99835.25;685917;28;8686;-64
2021/05/22 00:48:05;;;;;;;4.32;2.28;;;;;;;12.69;50.32;99834.22;682507;28;90724;-64
2021/05/22 00:48:26;;;;;;;3.65;2.20;;;;;;;12.67;50.50;99825.50;684806;28;46409;-64
2021/05/22 00:48:47;;;;;;;2.28;2.05;;;;;;;12.67;50.73;99833.63;685830;28;22447;-64
2021/05/22 00:49:09;;;;;;;2.53;1.90;;;;;;;12.67;50.90;99828.19;685965;28;23416;-64
2021/05/22 00:49:30;;;;;;;5.05;2.10;;;;;;;12.65;50.74;99828.41;684922;28;22159;-64
2021/05/22 00:49:51;;;;;;;3.40;2.00;;;;;;;12.64;50.67;99825.91;685069;28;46548;-64
2021/05/22 00:50:16;;;;;;;4.28;2.25;;;;;;;12.61;50.72;99819.03;685874;28;23534;-64
2021/05/22 00:50:39;;;;;;;2.90;2.10;;;;;;;12.60;50.92;99823.63;683505;28;93213;-64
2021/05/22 00:51:00;;;;;;;5.40;2.25;;;;;;;12.61;50.78;99827.16;684234;28;67295;-64
2021/05/22 00:51:21;;;;;;;6.40;2.53;;;;;;;12.59;50.82;99824.66;684676;28;45266;-64
2021/05/22 00:51:42;;;;;;;7.28;2.38;;;;;;;12.58;50.91;99828.41;685920;28;22396;-64
2021/05/22 00:52:04;;;;;;;4.32;2.25;;;;;;;12.57;51.02;99824.06;685834;28;21559;-64
2021/05/22 00:52:26;;;;;;;3.50;2.17;;;;;;;12.59;50.68;99832.78;686163;28;13513;-64
2021/05/22 00:52:47;;;;;;;2.30;2.00;;;;;;;12.59;50.98;99835.50;684633;28;46354;-64
2021/05/22 00:53:09;;;;;;;5.20;2.10;;;;;;;12.60;50.78;99839.03;685315;28;37977;-64
2021/05/22 00:53:30;;;;;;;6.00;2.13;;;;;;;12.60;50.80;99837.19;685417;28;41559;-64
2021/05/22 00:53:52;;;;;;;4.05;2.00;;;;;;;12.60;50.70;99830.91;686437;28;929;-64
2021/05/22 00:54:13;;;;;;;5.57;2.17;;;;;;;12.58;51.03;99836.53;686091;28;23453;-64
2021/05/22 00:54:34;;;;;;;3.55;1.95;;;;;;;12.59;50.96;99829.25;685440;28;22388;-64
2021/05/22 00:54:55;;;;;;;2.90;2.00;;;;;;;12.58;50.69;99828.41;684821;28;34751;-64
2021/05/22 00:55:17;;;;;;;2.47;1.90;;;;;;;12.57;51.14;99831.34;686383;28;11214;-64
2021/05/22 00:55:39;;;;;;;2.50;2.00;;;;;;;12.57;50.88;99836.75;687061;28;21502;-66
2021/05/22 00:56:01;;;;;;;2.92;2.08;;;;;;;12.57;51.01;99831.34;687473;28;46341;-64
2021/05/22 00:56:22;;;;;;;3.53;2.10;;;;;;;12.56;51.07;99829.69;687372;28;46522;-64
2021/05/22 00:56:43;;;;;;;4.25;2.17;;;;;;;12.56;51.13;99833.22;688493;28;19056;-64
2021/05/22 00:57:04;;;;;;;4.57;2.10;;;;;;;12.55;51.00;99841.56;688440;28;12469;-64
2021/05/22 00:57:25;;;;;;;4.18;1.92;;;;;;;12.56;50.88;99830.50;686583;28;45241;-64
2021/05/22 00:57:47;;;;;;;2.08;1.85;;;;;;;12.54;50.63;99835.31;685408;28;21551;-64
2021/05/22 00:58:08;;;;;;;2.22;2.03;;;;;;;12.53;50.76;99830.94;686428;28;22496;-64
2021/05/22 00:58:30;;;;;;;2.92;2.03;;;;;;;12.54;50.95;99829.03;686577;28;1371;-64
2021/05/22 00:58:51;;;;;;;3.88;2.13;;;;;;;12.53;50.77;99833.63;684837;28;46327;-64
2021/05/22 00:59:14;;;;;;;5.82;2.22;;;;;;;12.52;50.97;99831.97;685026;28;44372;-64
2021/05/22 00:59:35;;;;;;;5.60;2.22;;;;;;;12.51;51.08;99840.34;683993;28;41751;-64
2021/05/22 00:59:57;;;;;;;2.55;2.15;;;;;;;12.48;50.69;99833.44;684870;28;45347;-64
2021/05/22 01:00:20;;;;;;;3.33;1.98;;;;;;;12.49;51.23;99835.13;686207;28;14408;-64
2021/05/22 01:00:43;;;;;;;3.67;1.90;;;;;;;12.49;51.31;99845.09;684830;28;69986;-64
2021/05/22 01:01:05;;;;;;;5.32;2.15;;;;;;;12.47;50.82;99836.38;683350;28;81289;-64
2021/05/22 01:01:27;;;;;;;3.65;2.13;;;;;;;12.46;51.39;99842.81;685801;28;2025;-64
2021/05/22 01:01:48;;;;;;;3.28;2.05;;;;;;;12.45;51.08;99836.59;685710;28;23431;-64
2021/05/22 01:02:10;;;;;;;4.22;2.00;;;;;;;12.46;51.49;99842.81;685971;28;19676;-64
2021/05/22 01:02:31;;;;;;;3.67;2.13;;;;;;;12.46;51.08;99842.81;685006;28;45238;-64
2021/05/22 01:02:52;;;;;;;6.10;2.50;;;;;;;12.46;51.02;99835.56;685238;28;22539;-64
2021/05/22 01:03:16;;;;;;;4.60;2.17;;;;;;;12.47;51.48;99839.06;685298;28;22399;-64
2021/05/22 01:03:42;;;;;;;5.03;2.97;;;;;;;12.47;51.05;99831.78;682324;28;114607;-64
2021/05/22 01:04:03;;;;;;;4.00;2.30;;;;;;;12.46;51.21;99835.56;681739;28;138340;-64
2021/05/22 01:04:25;;;;;;;4.22;1.92;;;;;;;12.46;51.28;99830.13;685736;28;22414;-64
2021/05/22 01:04:46;;;;;;;4.53;2.00;;;;;;;12.44;51.38;99827.63;684515;28;44267;-64
2021/05/22 01:05:08;;;;;;;4.65;1.92;;;;;;;12.43;51.18;99823.25;685979;28;9994;-64
2021/05/22 01:05:29;;;;;;;2.70;1.75;;;;;;;12.40;51.48;99826.38;684511;28;46366;-64
2021/05/22 01:05:52;;;;;;;2.97;1.70;;;;;;;12.41;51.44;99827.22;685644;28;22406;-64
2021/05/22 01:06:15;;;;;;;3.28;2.05;;;;;;;12.40;51.24;99820.97;683131;28;69369;-64
2021/05/22 01:06:37;;;;;;;4.30;2.10;;;;;;;12.39;51.59;99819.28;684704;28;53972;-64
2021/05/22 01:06:58;;;;;;;6.20;2.17;;;;;;;12.40;51.55;99817.44;685234;28;46253;-65
2021/05/22 01:07:19;;;;;;;3.42;2.38;;;;;;;12.42;51.25;99821.56;685296;28;20863;-64
2021/05/22 01:07:43;;;;;;;3.45;1.90;;;;;;;12.42;51.01;99826.16;685378;28;21534;-65
2021/05/22 01:08:12;;;;;;;2.03;1.83;;;;;;;12.39;51.71;99824.72;681732;28;114147;-64
2021/05/22 01:08:34;;;;;;;3.58;1.80;;;;;;;12.40;51.48;99820.16;681785;28;137979;-64
2021/05/22 01:08:57;;;;;;;2.10;1.90;;;;;;;12.38;51.03;99823.06;684971;28;44328;-64
2021/05/22 01:09:20;;;;;;;3.92;2.22;;;;;;;12.38;51.11;99825.78;683846;28;68469;-64
2021/05/22 01:09:41;;;;;;;3.30;2.05;;;;;;;12.37;51.62;99832.22;683320;28;69365;-64
2021/05/22 01:10:04;;;;;;;3.50;1.85;;;;;;;12.36;51.56;99825.13;685453;28;22260;-64
2021/05/22 01:10:26;;;;;;;3.65;1.88;;;;;;;12.35;51.55;99828.06;684393;28;67509;-64
2021/05/22 01:10:50;;;;;;;5.75;2.20;;;;;;;12.36;51.45;99830.53;684908;28;34859;-64
2021/05/22 01:11:13;;;;;;;4.75;2.08;;;;;;;12.36;51.55;99833.25;683054;28;86100;-64
2021/05/22 01:11:38;;;;;;;2.45;1.80;;;;;;;12.36;51.32;99830.53;683964;28;63602;-64
2021/05/22 01:12:01;;;;;;;3.28;1.90;;;;;;;12.36;51.72;99835.97;681970;28;115321;-64
2021/05/22 01:12:27;;;;;;;2.60;1.80;;;;;;;12.36;51.71;99829.72;684455;28;67048;-64
2021/05/22 01:12:51;;;;;;;2.60;2.40;;;;;;;12.37;51.56;99831.41;681401;28;138817;-64
2021/05/22 01:13:13;;;;;;;2.67;1.92;;;;;;;12.36;51.59;99830.53;683220;28;92263;-64
2021/05/22 01:13:36;;;;;;;4.30;1.90;;;;;;;12.37;51.81;99832.22;684989;28;44027;-64
2021/05/22 01:14:00;;;;;;;3.05;1.90;;;;;;;12.36;51.62;99833.25;684898;28;37382;-64
2021/05/22 01:14:25;;;;;;;3.30;1.80;;;;;;;12.36;51.69;99832.44;683502;28;90769;-64
2021/05/22 01:14:48;;;;;;;3.50;2.00;;;;;;;12.37;51.66;99826.81;682279;28;113597;-64
2021/05/22 01:15:11;;;;;;;4.47;2.00;;;;;;;12.37;51.88;99839.53;684401;28;60315;-64
2021/05/22 01:15:33;;;;;;;5.25;2.13;;;;;;;12.36;51.67;99838.66;683792;28;68864;-64
2021/05/22 01:15:55;;;;;;;5.10;2.20;;;;;;;12.35;51.89;99839.72;684515;28;22313;-65
2021/05/22 01:16:19;;;;;;;3.70;2.13;;;;;;;12.35;51.96;99842.44;684297;28;45908;-64
2021/05/22 01:16:41;;;;;;;4.38;2.47;;;;;;;12.34;52.12;99840.75;682629;28;92406;-64
2021/05/22 01:17:02;;;;;;;2.70;2.20;;;;;;;12.33;52.11;99840.97;683910;28;69833;-64
2021/05/22 01:17:23;;;;;;;2.85;2.10;;;;;;;12.34;51.75;99837.22;685373;28;11570;-65
2021/05/22 01:17:47;;;;;;;5.03;2.10;;;;;;;12.34;51.76;99842.66;685960;28;11208;-64
2021/05/22 01:18:15;;;;;;;3.28;1.70;;;;;;;12.33;51.78;99840.97;684428;28;61483;-64
2021/05/22 01:18:36;;;;;;;5.18;2.00;;;;;;;12.33;51.90;99833.66;685402;28;22479;-64
2021/05/22 01:18:59;;;;;;;3.03;2.10;;;;;;;12.33;52.33;99839.09;685059;28;46385;-64
2021/05/22 01:19:26;;;;;;;3.38;2.00;;;;;;;12.33;52.01;99841.78;684394;28;44349;-64
2021/05/22 01:19:53;;;;;;;2.97;1.88;;;;;;;12.31;51.88;99840.38;680614;28;150784;-64
2021/05/22 01:20:23;;;;;;;4.50;1.98;;;;;;;12.29;52.27;99840.56;682029;28;123256;-64
2021/05/22 01:20:46;;;;;;;3.53;1.92;;;;;;;12.28;51.92;99851.63;682439;28;118112;-64
2021/05/22 01:21:07;;;;;;;3.15;1.90;;;;;;;12.28;52.28;99843.50;685090;28;43273;-64
2021/05/22 01:21:29;;;;;;;3.53;1.90;;;;;;;12.29;52.43;99847.84;685573;28;22394;-64
2021/05/22 01:21:50;;;;;;;3.47;2.00;;;;;;;12.26;52.29;99841.81;683631;28;67246;-64
2021/05/22 01:22:12;;;;;;;2.45;1.98;;;;;;;12.28;52.32;99852.44;685510;28;22847;-64
2021/05/22 01:22:37;;;;;;;2.13;1.80;;;;;;;12.28;52.39;99847.03;685874;28;19293;-64
2021/05/22 01:23:03;;;;;;;3.72;1.90;;;;;;;12.30;52.47;99857.63;680607;28;138096;-64
2021/05/22 01:23:28;;;;;;;3.83;1.90;;;;;;;12.31;52.43;99851.19;680755;28;137698;-64
2021/05/22 01:23:51;;;;;;;2.25;1.98;;;;;;;12.31;52.30;99845.78;681012;28;138172;-64
2021/05/22 01:24:14;;;;;;;2.60;2.10;;;;;;;12.30;52.55;99847.63;683632;28;70250;-64
2021/05/22 01:24:43;;;;;;;4.05;2.10;;;;;;;12.31;52.53;99851.19;683555;28;69424;-64
2021/05/22 01:25:08;;;;;;;2.97;2.00;;;;;;;12.29;52.52;99845.97;682258;28;127830;-64
2021/05/22 01:25:32;;;;;;;3.72;1.95;;;;;;;12.29;52.28;99839.72;684135;28;61407;-64
2021/05/22 01:25:56;;;;;;;3.30;2.10;;;;;;;12.30;52.33;99841.41;683217;28;88123;-64
2021/05/22 01:26:17;;;;;;;3.05;1.90;;;;;;;12.28;52.58;99827.25;682770;28;92242;-64
2021/05/22 01:26:40;;;;;;;2.83;2.13;;;;;;;12.30;52.36;99838.69;684649;28;46704;-64
2021/05/22 01:27:01;;;;;;;4.68;2.10;;;;;;;12.26;52.68;99832.88;684986;28;47461;-64
2021/05/22 01:27:22;;;;;;;3.92;1.90;;;;;;;12.26;52.51;99830.16;685471;28;23274;-64
2021/05/22 01:27:44;;;;;;;3.00;1.88;;;;;;;12.27;52.60;99831.81;685087;28;43207;-64
2021/05/22 01:28:08;;;;;;;2.50;2.08;;;;;;;12.28;52.65;99833.47;685463;28;21675;-64
2021/05/22 01:28:30;;;;;;;3.15;2.15;;;;;;;12.27;52.54;99831.81;683199;28;85429;-64
2021/05/22 01:28:51;;;;;;;3.00;1.98;;;;;;;12.27;52.52;99834.50;684572;28;44403;-64
2021/05/22 01:29:13;;;;;;;2.00;1.80;;;;;;;12.26;52.77;99833.69;685187;28;44384;-64
2021/05/22 01:29:34;;;;;;;3.03;2.10;;;;;;;12.30;53.05;99835.97;684860;28;20750;-64
2021/05/22 01:29:59;;;;;;;2.15;1.88;;;;;;;12.29;52.84;99832.44;685120;28;36287;-64
2021/05/22 01:30:20;;;;;;;4.53;1.90;;;;;;;12.30;52.88;99836.81;685297;28;21625;-64
2021/05/22 01:30:44;;;;;;;3.92;2.08;;;;;;;12.31;52.86;99843.06;685106;28;23485;-64
2021/05/22 01:31:07;;;;;;;4.50;2.10;;;;;;;12.32;52.62;99840.16;685915;28;93134;-64
2021/05/22 01:31:28;;;;;;;4.43;2.03;;;;;;;12.34;52.81;99838.06;686229;28;68455;-64
2021/05/22 01:31:49;;;;;;;4.30;2.00;;;;;;;12.33;53.07;99836.38;688168;28;23407;-64
2021/05/22 01:32:11;;;;;;;2.75;2.00;;;;;;;12.33;52.80;99840.97;689106;28;23833;-64
2021/05/22 01:32:34;;;;;;;2.63;1.77;;;;;;;12.32;53.14;99842.00;689511;28;53905;-64
2021/05/22 01:32:55;;;;;;;2.15;1.95;;;;;;;12.33;53.15;99846.38;687624;28;31574;-64
2021/05/22 01:33:19;;;;;;;2.20;2.00;;;;;;;12.32;52.98;99842.00;685981;28;15856;-64
2021/05/22 01:33:41;;;;;;;3.28;1.95;;;;;;;12.32;53.18;99842.88;683255;28;92315;-64
2021/05/22 01:34:02;;;;;;;3.15;2.00;;;;;;;12.30;53.40;99844.09;685470;28;28403;-64
2021/05/22 01:34:23;;;;;;;2.55;2.10;;;;;;;12.31;52.98;99841.19;685640;28;20368;-64
2021/05/22 01:34:44;;;;;;;2.80;2.03;;;;;;;12.31;53.28;99843.06;685544;28;1784;-64
2021/05/22 01:35:11;;;;;;;3.03;1.80;;;;;;;12.30;53.15;99846.81;684610;28;60487;-64
2021/05/22 01:35:33;;;;;;;2.72;1.88;;;;;;;12.28;53.37;99843.50;685521;28;22520;-64
2021/05/22 01:35:54;;;;;;;4.28;2.05;;;;;;;12.28;53.12;99841.59;685011;28;32906;-64
2021/05/22 01:36:15;;;;;;;3.60;1.90;;;;;;;12.26;53.52;99844.53;686200;28;3276;-64
2021/05/22 01:36:36;;;;;;;4.80;1.83;;;;;;;12.27;53.67;99842.63;685959;28;10509;-64
2021/05/22 01:36:58;;;;;;;5.13;1.83;;;;;;;12.27;53.31;99837.22;686362;28;7417;-64
2021/05/22 01:37:19;;;;;;;2.08;1.83;;;;;;;12.27;53.47;99837.22;684630;28;46747;-64
2021/05/22 01:37:40;;;;;;;4.32;2.10;;;;;;;12.29;53.41;99840.56;685976;28;16941;-64
2021/05/22 01:38:01;;;;;;;3.17;2.03;;;;;;;12.29;53.78;99845.13;685592;28;11991;-64
2021/05/22 01:38:22;;;;;;;2.78;1.90;;;;;;;12.26;53.79;99833.69;685509;28;22422;-64
2021/05/22 01:38:43;;;;;;;4.30;1.77;;;;;;;12.29;53.93;99837.00;685683;28;22438;-64
2021/05/22 01:39:05;;;;;;;3.65;2.00;;;;;;;12.28;53.80;99838.06;685750;28;22397;-64
2021/05/22 01:39:26;;;;;;;2.05;1.90;;;;;;;12.28;53.94;99830.78;684557;28;46451;-64
2021/05/22 01:39:47;;;;;;;2.15;1.85;;;;;;;12.31;53.79;99830.34;685111;28;23666;-64
2021/05/22 01:40:10;;;;;;;2.40;1.90;;;;;;;12.30;53.97;99830.56;685350;28;23302;-64
2021/05/22 01:40:32;;;;;;;2.25;2.00;;;;;;;12.30;53.77;99828.69;684091;28;69437;-64
2021/05/22 01:40:53;;;;;;;2.33;1.95;;;;;;;12.34;53.88;99837.22;685050;28;45277;-64
2021/05/22 01:41:14;;;;;;;3.97;2.30;;;;;;;12.33;53.71;99830.97;685342;28;15445;-64
2021/05/22 01:41:35;;;;;;;2.45;2.03;;;;;;;12.33;54.12;99827.44;685405;28;22418;-64
2021/05/22 01:41:57;;;;;;;2.50;1.80;;;;;;;12.34;53.86;99831.81;685254;28;21567;-64
2021/05/22 01:42:18;;;;;;;3.75;1.92;;;;;;;12.34;54.28;99831.81;685465;28;23394;-64
2021/05/22 01:42:39;;;;;;;2.75;1.75;;;;;;;12.34;54.13;99829.13;685284;28;22639;-64
2021/05/22 01:43:00;;;;;;;3.97;1.73;;;;;;;12.33;54.47;99836.38;684154;28;44408;-64
2021/05/22 01:43:21;;;;;;;4.22;1.90;;;;;;;12.32;54.68;99834.75;685797;28;23544;-64
2021/05/22 01:43:46;;;;;;;2.97;1.73;;;;;;;12.31;54.25;99824.13;685704;28;22260;-64
2021/05/22 01:44:08;;;;;;;2.65;1.80;;;;;;;12.30;54.42;99825.97;683528;28;82773;-64
2021/05/22 01:44:34;;;;;;;3.40;1.90;;;;;;;12.31;54.47;99834.94;684375;28;59669;-64
2021/05/22 01:44:55;;;;;;;3.67;1.80;;;;;;;12.31;54.72;99824.94;682234;28;115133;-64
2021/05/22 01:45:17;;;;;;;2.22;1.98;;;;;;;12.33;54.27;99830.16;685144;28;46361;-64